PWSweather.com
Personal Weather Stations
Station Observations
KCTHAMDEN
Dunbar Hill, Hamden, CT 06514

Dunbar HillHamden, CT 06514

Lat: 41.365437, Lon: -72.956532

Elevation: 200

Station Type: Davis Vantage Pro2+

Latest ConditionsUpdated 2:15:01 PM EST Tuesday, Nov 12, 2019
Currently Today's Max Today's Min Today's Average
Temperature 32.4°F0.2°C 50.3°F10.2°C 32.4°F0.2°C 42.8°F6.0°C
Dew Point 23.0°F-5.0°C 48.6°F9.2°C 23.0°F-5.0°C 38.5°F3.6°C
Winds 1.2 mph WSW1.9 kmh WSW 3.4 mph -5.5 kmh - - 0.5 mph 0.8 kmh
Wind Gusts 13.0 mph20.9 kmh 16.0 mph25.7 kmh - -
Humidity 68% 95% 68% 85%
Pressure 29.90 in1012.5 mb 29.90 in1012.5 mb 29.67 in1004.7 mb -
Precipitation - 0.08 in2.0 mm - -
Hour Temp Dew Point Humidity Winds Wind Gusts Pressure Precip Precip Rate Daily Precip Total
02:15 PM 32.4°F0.2°C 23.0°F-5.0°C 68% 1.2 mph WSW1.9 kmh WSW 13.0 mph20.9 kmh 29.90 in1012.5 mb - 0.00 in0.0 mm 0.08 in2.0 mm
02:00 PM 32.5°F0.3°C 23.1°F-4.9°C 68% 2.8 mph E4.5 kmh E 15.0 mph24.1 kmh 29.89 in1012.2 mb - 0.00 in0.0 mm 0.08 in2.0 mm
01:45 PM 32.9°F0.5°C 24.1°F-4.4°C 70% 2.8 mph SW4.5 kmh SW 16.0 mph25.7 kmh 29.89 in1012.2 mb - 0.00 in0.0 mm 0.08 in2.0 mm
01:30 PM 33.4°F0.8°C 26.0°F-3.3°C 74% 1.3 mph WSW2.1 kmh WSW 4.0 mph6.4 kmh 29.88 in1011.9 mb - 0.00 in0.0 mm 0.08 in2.0 mm
01:15 PM 34.0°F1.1°C 27.8°F-2.3°C 78% 1.0 mph E1.6 kmh E 7.0 mph11.3 kmh 29.87 in1011.5 mb - 0.00 in0.0 mm 0.08 in2.0 mm
01:00 PM 34.8°F1.6°C 28.3°F-2.1°C 77% 0.1 mph NE0.2 kmh NE 1.0 mph1.6 kmh 29.86 in1011.2 mb - 0.00 in0.0 mm 0.08 in2.0 mm
12:45 PM 35.6°F2.0°C 29.8°F-1.2°C 79% 0.2 mph E0.3 kmh E -- 29.86 in1011.2 mb - 0.00 in0.0 mm 0.08 in2.0 mm
12:30 PM 36.3°F2.4°C 30.1°F-1.1°C 78% 0.4 mph WSW0.6 kmh WSW 7.0 mph11.3 kmh 29.85 in1010.8 mb - 0.00 in0.0 mm 0.08 in2.0 mm
12:15 PM 36.8°F2.7°C 31.2°F-0.4°C 80% 0.2 mph SSE0.3 kmh SSE 6.0 mph9.7 kmh 29.84 in1010.5 mb - 0.00 in0.0 mm 0.08 in2.0 mm
12:00 PM 37.1°F2.8°C 31.8°F-0.1°C 81% 0.5 mph ESE0.8 kmh ESE 8.0 mph12.9 kmh 29.84 in1010.5 mb - 0.00 in0.0 mm 0.08 in2.0 mm
11:45 AM 37.8°F3.2°C 32.8°F0.4°C 82% Calm Calm 1.0 mph1.6 kmh 29.83 in1010.2 mb - 0.00 in0.0 mm 0.08 in2.0 mm
11:30 AM 38.8°F3.8°C 35.2°F1.8°C 87% 1.8 mph NE2.9 kmh NE 4.0 mph6.4 kmh 29.82 in1009.8 mb - 0.00 in0.0 mm 0.08 in2.0 mm
11:15 AM 39.2°F4.0°C 36.2°F2.3°C 89% 0.4 mph SW0.6 kmh SW 4.0 mph6.4 kmh 29.81 in1009.5 mb - 0.00 in0.0 mm 0.08 in2.0 mm
11:00 AM 39.7°F4.3°C 36.7°F2.6°C 89% 2.5 mph W4.0 kmh W 4.0 mph6.4 kmh 29.79 in1008.8 mb - 0.00 in0.0 mm 0.08 in2.0 mm
10:45 AM 40.5°F4.7°C 37.8°F3.2°C 90% 3.2 mph NW5.1 kmh NW 7.0 mph11.3 kmh 29.79 in1008.8 mb - 0.01 in0.3 mm 0.08 in2.0 mm
10:30 AM 41.5°F5.3°C 38.5°F3.6°C 89% 0.1 mph WSW0.2 kmh WSW -- 29.78 in1008.5 mb - 0.01 in0.3 mm 0.07 in1.8 mm
10:15 AM 42.5°F5.8°C 39.5°F4.2°C 89% 3.4 mph WSW5.5 kmh WSW 8.0 mph12.9 kmh 29.77 in1008.1 mb - 0.01 in0.3 mm 0.06 in1.5 mm
10:00 AM 43.4°F6.3°C 40.4°F4.7°C 89% Calm Calm -- 29.77 in1008.1 mb - 0.01 in0.3 mm 0.05 in1.3 mm
09:45 AM 44.1°F6.7°C 41.0°F5.0°C 89% 0.3 mph SSW0.5 kmh SSW -- 29.76 in1007.8 mb - 0.01 in0.3 mm 0.05 in1.3 mm
09:30 AM 44.8°F7.1°C 41.5°F5.3°C 88% Calm Calm -- 29.75 in1007.5 mb - 0.01 in0.3 mm 0.04 in1.0 mm
09:15 AM 45.8°F7.7°C 42.1°F5.6°C 87% 2.9 mph SW4.7 kmh SW 7.0 mph11.3 kmh 29.74 in1007.1 mb - 0.01 in0.3 mm 0.03 in0.8 mm
09:00 AM 47.8°F8.8°C 44.1°F6.7°C 87% Calm Calm -- 29.75 in1007.5 mb - 0.00 in0.0 mm 0.02 in0.5 mm
08:45 AM 49.6°F9.8°C 46.7°F8.2°C 90% 1.9 mph WSW3.1 kmh WSW 9.0 mph14.5 kmh 29.74 in1007.1 mb - 0.00 in0.0 mm 0.02 in0.5 mm
08:30 AM 50.3°F10.2°C 48.6°F9.2°C 94% 0.3 mph E0.5 kmh E -- 29.72 in1006.4 mb - 0.01 in0.3 mm 0.02 in0.5 mm
08:15 AM 48.7°F9.3°C 47.4°F8.6°C 95% 1.5 mph S2.4 kmh S 2.0 mph3.2 kmh 29.70 in1005.8 mb - 0.01 in0.3 mm 0.01 in0.3 mm
08:00 AM 45.4°F7.4°C 43.5°F6.4°C 93% 1.9 mph SSW3.1 kmh SSW 4.0 mph6.4 kmh 29.70 in1005.8 mb - 0.00 in0.0 mm 0.00 in0.0 mm
07:45 AM 44.5°F6.9°C 42.4°F5.8°C 92% Calm Calm -- 29.71 in1006.1 mb - 0.00 in0.0 mm 0.00 in0.0 mm
07:30 AM 44.4°F6.9°C 41.9°F5.5°C 91% Calm Calm -- 29.71 in1006.1 mb - 0.00 in0.0 mm 0.00 in0.0 mm
07:15 AM 44.3°F6.8°C 41.9°F5.5°C 91% Calm Calm -- 29.69 in1005.4 mb - 0.00 in0.0 mm 0.00 in0.0 mm
07:00 AM 44.4°F6.9°C 41.9°F5.5°C 91% Calm Calm -- 29.70 in1005.8 mb - 0.00 in0.0 mm 0.00 in0.0 mm
06:45 AM 44.4°F6.9°C 41.7°F5.4°C 90% Calm Calm -- 29.69 in1005.4 mb - 0.00 in0.0 mm 0.00 in0.0 mm
06:30 AM 44.5°F6.9°C 42.0°F5.6°C 91% Calm Calm -- 29.69 in1005.4 mb - 0.00 in0.0 mm 0.00 in0.0 mm
06:15 AM 44.6°F7.0°C 42.1°F5.6°C 91% Calm Calm -- 29.70 in1005.8 mb - 0.00 in0.0 mm 0.00 in0.0 mm
06:00 AM 44.5°F6.9°C 42.0°F5.6°C 91% Calm Calm -- 29.69 in1005.4 mb - 0.00 in0.0 mm 0.00 in0.0 mm
05:45 AM 44.5°F6.9°C 42.0°F5.6°C 91% Calm Calm -- 29.70 in1005.8 mb - 0.00 in0.0 mm 0.00 in0.0 mm
05:30 AM 44.4°F6.9°C 41.7°F5.4°C 90% Calm Calm -- 29.72 in1006.4 mb - 0.00 in0.0 mm 0.00 in0.0 mm
05:15 AM 44.2°F6.8°C 41.5°F5.3°C 90% Calm Calm -- 29.72 in1006.4 mb - 0.00 in0.0 mm 0.00 in0.0 mm
05:00 AM 43.9°F6.6°C 41.2°F5.1°C 90% Calm Calm -- 29.67 in1004.7 mb - 0.00 in0.0 mm 0.00 in0.0 mm
04:45 AM 43.6°F6.4°C 40.6°F4.8°C 89% Calm Calm -- 29.69 in1005.4 mb - 0.00 in0.0 mm 0.00 in0.0 mm
04:30 AM 43.6°F6.4°C 40.3°F4.6°C 88% Calm Calm -- 29.71 in1006.1 mb - 0.00 in0.0 mm 0.00 in0.0 mm
04:15 AM 43.7°F6.5°C 40.0°F4.4°C 87% Calm Calm -- 29.72 in1006.4 mb - 0.00 in0.0 mm 0.00 in0.0 mm
04:00 AM 43.8°F6.6°C 40.2°F4.6°C 87% Calm Calm -- 29.72 in1006.4 mb - 0.00 in0.0 mm 0.00 in0.0 mm
03:45 AM 43.9°F6.6°C 40.3°F4.6°C 87% Calm Calm -- 29.71 in1006.1 mb - 0.00 in0.0 mm 0.00 in0.0 mm
03:30 AM 44.0°F6.7°C 40.1°F4.5°C 86% Calm Calm -- 29.73 in1006.8 mb - 0.00 in0.0 mm 0.00 in0.0 mm
03:15 AM 44.1°F6.7°C 39.9°F4.4°C 85% Calm Calm -- 29.73 in1006.8 mb - 0.00 in0.0 mm 0.00 in0.0 mm
03:00 AM 44.4°F6.9°C 40.1°F4.5°C 85% Calm Calm -- 29.74 in1007.1 mb - 0.00 in0.0 mm 0.00 in0.0 mm
02:45 AM 44.6°F7.0°C 40.1°F4.5°C 84% Calm Calm -- 29.75 in1007.5 mb - 0.00 in0.0 mm 0.00 in0.0 mm
02:30 AM 44.8°F7.1°C 40.3°F4.6°C 84% Calm Calm -- 29.75 in1007.5 mb - 0.00 in0.0 mm 0.00 in0.0 mm
02:15 AM 45.2°F7.3°C 40.3°F4.6°C 83% 0.4 mph E0.6 kmh E -- 29.76 in1007.8 mb - 0.00 in0.0 mm 0.00 in0.0 mm
02:00 AM 45.5°F7.5°C 40.3°F4.6°C 82% Calm Calm -- 29.77 in1008.1 mb - 0.00 in0.0 mm 0.00 in0.0 mm
01:45 AM 45.8°F7.7°C 40.3°F4.6°C 81% Calm Calm -- 29.79 in1008.8 mb - 0.00 in0.0 mm 0.00 in0.0 mm
01:30 AM 46.2°F7.9°C 40.4°F4.7°C 80% Calm Calm -- 29.79 in1008.8 mb - 0.00 in0.0 mm 0.00 in0.0 mm
01:15 AM 46.4°F8.0°C 40.2°F4.6°C 79% Calm Calm -- 29.80 in1009.1 mb - 0.00 in0.0 mm 0.00 in0.0 mm
01:00 AM 46.5°F8.1°C 40.3°F4.6°C 79% Calm Calm -- 29.81 in1009.5 mb - 0.00 in0.0 mm 0.00 in0.0 mm
12:45 AM 46.6°F8.1°C 40.5°F4.7°C 79% Calm Calm -- 29.81 in1009.5 mb - 0.00 in0.0 mm 0.00 in0.0 mm
12:30 AM 46.9°F8.3°C 40.7°F4.8°C 79% Calm Calm -- 29.82 in1009.8 mb - 0.00 in0.0 mm 0.00 in0.0 mm
12:15 AM 47.0°F8.3°C 40.5°F4.7°C 78% Calm Calm -- 29.83 in1010.2 mb - 0.00 in0.0 mm 0.00 in0.0 mm
12:00 AM 47.3°F8.5°C 40.8°F4.9°C 78% Calm Calm -- 29.84 in1010.5 mb - 0.00 in0.0 mm 0.00 in0.0 mm